createdAt,value
2017-10-06T00:00:06.437Z,99040.55
2017-10-06T00:02:33.938Z,99049.69
2017-10-06T00:05:01.409Z,99050.66
2017-10-06T00:07:28.872Z,99045.44
2017-10-06T00:09:56.428Z,99049.44
2017-10-06T00:12:23.973Z,99047.80
2017-10-06T00:14:51.704Z,99051.06
2017-10-06T00:17:19.158Z,99048.70
2017-10-06T00:19:46.651Z,99051.64
2017-10-06T00:22:14.134Z,99056.10
2017-10-06T00:24:41.677Z,99057.77
2017-10-06T00:27:09.143Z,99056.78
2017-10-06T00:29:36.685Z,99064.17
2017-10-06T00:32:04.450Z,99064.84
2017-10-06T00:34:31.902Z,99061.95
2017-10-06T00:36:59.463Z,99058.98
2017-10-06T00:39:26.967Z,99053.58
2017-10-06T00:41:54.444Z,99051.31
2017-10-06T00:44:21.931Z,99045.26
2017-10-06T00:46:49.385Z,99056.08
2017-10-06T00:49:16.875Z,99063.67
2017-10-06T00:51:44.419Z,99055.47
2017-10-06T00:54:11.893Z,99051.49
2017-10-06T00:56:39.390Z,99050.29
2017-10-06T00:59:06.846Z,99048.81
2017-10-06T01:01:34.309Z,99052.36
2017-10-06T01:04:01.797Z,99054.31
2017-10-06T01:06:29.252Z,99055.16
2017-10-06T01:08:56.819Z,99050.63
2017-10-06T01:11:24.313Z,99046.16
2017-10-06T01:13:51.779Z,99048.17
2017-10-06T01:16:19.247Z,99045.29
2017-10-06T01:18:46.722Z,99049.63
2017-10-06T01:21:14.189Z,99044.91
2017-10-06T01:23:41.761Z,99041.69
2017-10-06T01:26:09.226Z,99045.16
2017-10-06T01:28:36.754Z,99040.57
2017-10-06T01:31:04.238Z,99035.38
2017-10-06T01:33:31.719Z,99037.25
2017-10-06T01:35:59.566Z,99035.10
2017-10-06T01:38:27.013Z,99035.41
2017-10-06T01:40:54.473Z,99034.69
2017-10-06T01:43:21.935Z,99034.79
2017-10-06T01:45:49.386Z,99033.67
2017-10-06T01:48:16.876Z,99038.90
2017-10-06T01:50:44.342Z,99034.54
2017-10-06T01:53:12.178Z,99041.11
2017-10-06T01:55:39.649Z,99049.65
2017-10-06T01:58:07.127Z,99045.70
2017-10-06T02:00:34.600Z,99044.95
2017-10-06T02:03:02.062Z,99046.17
2017-10-06T02:05:29.541Z,99038.81
2017-10-06T02:07:56.999Z,99036.91
2017-10-06T02:10:24.539Z,99035.82
2017-10-06T02:12:51.992Z,99034.50
2017-10-06T02:15:19.494Z,99028.11
2017-10-06T02:17:47.051Z,99013.93
2017-10-06T02:20:14.617Z,99011.27
2017-10-06T02:22:42.091Z,99014.91
2017-10-06T02:25:09.552Z,99017.73
2017-10-06T02:27:37.056Z,99020.58
2017-10-06T02:30:04.524Z,99021.75
2017-10-06T02:32:32.278Z,99021.41
2017-10-06T02:34:59.739Z,99018.90
2017-10-06T02:37:27.199Z,99018.13
2017-10-06T02:39:54.678Z,99021.41
2017-10-06T02:42:22.141Z,99028.56
2017-10-06T02:44:49.637Z,99030.77
2017-10-06T02:47:17.098Z,99032.20
2017-10-06T02:49:44.555Z,99026.94
2017-10-06T02:52:12.023Z,99028.48
2017-10-06T02:54:39.488Z,99033.81
2017-10-06T02:57:06.988Z,99021.41
2017-10-06T02:59:34.439Z,99020.63
2017-10-06T03:02:01.942Z,99021.33
2017-10-06T03:04:29.476Z,99022.36
2017-10-06T03:06:56.920Z,99028.88
2017-10-06T03:09:24.466Z,99030.19
2017-10-06T03:11:51.923Z,99038.84
2017-10-06T03:14:19.383Z,99030.38
2017-10-06T03:16:46.873Z,99037.16
2017-10-06T03:19:14.321Z,99035.38
2017-10-06T03:21:41.802Z,99038.64
2017-10-06T03:24:09.256Z,99037.89
2017-10-06T03:26:37.082Z,99041.09
2017-10-06T03:29:04.543Z,99035.97
2017-10-06T03:31:32.030Z,99034.79
2017-10-06T03:33:59.533Z,99032.08
2017-10-06T03:36:27.014Z,99034.43
2017-10-06T03:38:54.771Z,99038.53
2017-10-06T03:41:22.336Z,99044.09
2017-10-06T03:43:49.790Z,99041.77
2017-10-06T03:46:17.273Z,99031.86
2017-10-06T03:48:44.739Z,99029.91
2017-10-06T03:51:12.218Z,99036.34
2017-10-06T03:53:39.669Z,99029.50
2017-10-06T03:56:07.154Z,99036.56
2017-10-06T03:58:34.599Z,99034.53
2017-10-06T04:01:02.067Z,99035.89
2017-10-06T04:03:29.537Z,99032.91
2017-10-06T04:05:57.027Z,99034.84
2017-10-06T04:08:24.553Z,99035.97
2017-10-06T04:10:52.018Z,99035.13
2017-10-06T04:13:19.782Z,99037.76
2017-10-06T04:15:47.253Z,99040.45
2017-10-06T04:18:14.715Z,99038.17
2017-10-06T04:20:42.185Z,99038.77
2017-10-06T04:23:09.643Z,99033.87
2017-10-06T04:25:37.128Z,99038.23
2017-10-06T04:28:04.585Z,99036.17
2017-10-06T04:30:32.330Z,99039.73
2017-10-06T04:32:59.860Z,99039.79
2017-10-06T04:35:27.325Z,99032.87
2017-10-06T04:37:54.889Z,99028.70
2017-10-06T04:40:22.388Z,99036.00
2017-10-06T04:42:49.860Z,99034.73
2017-10-06T04:45:17.309Z,99034.52
2017-10-06T04:47:44.819Z,99022.62
2017-10-06T04:50:12.299Z,99034.00
2017-10-06T04:52:39.763Z,99035.48
2017-10-06T04:55:07.298Z,99036.10
2017-10-06T04:57:34.799Z,99040.46
2017-10-06T05:00:02.268Z,99030.38
2017-10-06T05:02:29.758Z,99033.79
2017-10-06T05:04:57.510Z,99031.27
2017-10-06T05:07:24.993Z,99034.18
2017-10-06T05:09:52.458Z,99037.17
2017-10-06T05:12:19.961Z,99037.30
2017-10-06T05:14:47.425Z,99036.05
2017-10-06T05:17:14.903Z,99040.27
2017-10-06T05:19:42.362Z,99039.69
2017-10-06T05:22:10.131Z,99039.63
2017-10-06T05:24:37.589Z,99043.05
2017-10-06T05:27:05.049Z,99045.11
2017-10-06T05:29:32.538Z,99035.03
2017-10-06T05:32:00.003Z,99033.73
2017-10-06T05:34:27.475Z,99033.31
2017-10-06T05:36:55.729Z,99033.36
2017-10-06T05:39:23.245Z,99039.39
2017-10-06T05:41:50.706Z,99032.59
2017-10-06T05:44:18.512Z,99034.27
2017-10-06T05:46:46.020Z,99034.27
2017-10-06T05:49:13.610Z,99036.87
2017-10-06T05:51:51.042Z,99037.48
2017-10-06T05:54:18.496Z,99034.32
2017-10-06T05:56:45.994Z,99039.69
2017-10-06T05:59:13.503Z,99030.91
2017-10-06T06:01:41.010Z,99030.63
2017-10-06T06:04:08.779Z,99032.83
2017-10-06T06:06:36.297Z,99033.84
2017-10-06T06:09:03.786Z,99040.38
2017-10-06T06:11:31.633Z,99041.56
2017-10-06T06:13:59.096Z,99042.63
2017-10-06T06:16:26.620Z,99043.94
2017-10-06T06:18:54.110Z,99044.36
2017-10-06T06:21:21.578Z,99041.90
2017-10-06T06:23:49.046Z,99056.50
2017-10-06T06:26:16.523Z,99054.86
2017-10-06T06:28:44.108Z,99059.86
2017-10-06T06:31:11.620Z,99063.16
2017-10-06T06:33:39.110Z,99056.98
2017-10-06T06:36:06.592Z,99060.31
2017-10-06T06:38:34.056Z,99063.83
2017-10-06T06:41:01.554Z,99070.48
2017-10-06T06:43:29.050Z,99070.45
2017-10-06T06:45:56.865Z,99079.37
2017-10-06T06:48:24.336Z,99080.10
2017-10-06T06:50:51.823Z,99072.11
2017-10-06T06:53:19.303Z,99077.30
2017-10-06T06:55:46.923Z,99083.70
2017-10-06T06:58:14.801Z,99088.70
2017-10-06T07:00:42.284Z,99087.59
2017-10-06T07:03:09.777Z,99090.63
2017-10-06T07:05:37.249Z,99093.63
2017-10-06T07:08:04.736Z,99098.31
2017-10-06T07:10:32.207Z,99092.53
2017-10-06T07:12:59.687Z,99104.16
2017-10-06T07:15:27.174Z,99099.86
2017-10-06T07:17:54.646Z,99090.58
2017-10-06T07:20:22.194Z,99092.39
2017-10-06T07:22:49.849Z,99106.06
2017-10-06T07:25:17.330Z,99109.30
2017-10-06T07:27:44.836Z,99108.49
2017-10-06T07:30:12.325Z,99109.41
2017-10-06T07:32:40.092Z,99112.67
2017-10-06T07:35:07.561Z,99118.41
2017-10-06T07:37:35.032Z,99114.95
2017-10-06T07:40:02.523Z,99126.13
2017-10-06T07:42:30.024Z,99127.02
2017-10-06T07:44:57.543Z,99127.99
2017-10-06T07:47:25.063Z,99125.52
2017-10-06T07:49:52.524Z,99126.47
2017-10-06T07:52:20.084Z,99121.99
2017-10-06T07:54:47.539Z,99128.78
2017-10-06T07:57:15.015Z,99124.78
2017-10-06T07:59:42.527Z,99125.33
2017-10-06T08:02:10.141Z,99131.06
2017-10-06T08:04:37.606Z,99136.89
2017-10-06T08:07:05.067Z,99131.70
2017-10-06T08:09:32.547Z,99140.83
2017-10-06T08:12:00.114Z,99145.05
2017-10-06T08:14:27.635Z,99145.56
2017-10-06T08:16:55.164Z,99150.84
2017-10-06T08:19:22.625Z,99148.13
2017-10-06T08:21:50.164Z,99145.17
2017-10-06T08:24:17.681Z,99156.95
2017-10-06T08:26:45.207Z,99151.21
2017-10-06T08:29:12.677Z,99141.27
2017-10-06T08:31:40.509Z,99142.05
2017-10-06T08:34:08.129Z,99143.37
2017-10-06T08:36:35.594Z,99146.14
2017-10-06T08:39:03.109Z,99150.78
2017-10-06T08:41:30.931Z,99147.83
2017-10-06T08:43:58.481Z,99151.52
2017-10-06T08:46:26.105Z,99162.32
2017-10-06T08:48:53.582Z,99160.38
2017-10-06T08:51:21.063Z,99160.20
2017-10-06T08:53:48.539Z,99157.73
2017-10-06T08:56:16.137Z,99163.52
2017-10-06T08:58:43.639Z,99178.52
2017-10-06T09:01:11.248Z,99167.83
2017-10-06T09:03:38.715Z,99177.23
2017-10-06T09:06:06.545Z,99173.05
2017-10-06T09:08:34.016Z,99166.17
2017-10-06T09:11:01.512Z,99172.63
2017-10-06T09:13:29.138Z,99172.06
2017-10-06T09:15:56.826Z,99177.03
2017-10-06T09:18:24.349Z,99176.59
2017-10-06T09:20:51.809Z,99167.45
2017-10-06T09:23:19.273Z,99162.87
2017-10-06T09:25:46.754Z,99164.11
2017-10-06T09:28:14.297Z,99163.92
2017-10-06T09:30:41.826Z,99165.70
2017-10-06T09:33:09.300Z,99171.98
2017-10-06T09:35:36.771Z,99170.70
2017-10-06T09:38:04.350Z,99180.85
2017-10-06T09:40:31.890Z,99178.27
2017-10-06T09:42:59.373Z,99178.89
2017-10-06T09:45:26.833Z,99178.29
2017-10-06T09:47:54.289Z,99177.23
2017-10-06T09:50:21.843Z,99176.88
2017-10-06T09:52:49.316Z,99180.58
2017-10-06T09:55:16.775Z,99192.42
2017-10-06T09:57:44.236Z,99188.39
2017-10-06T10:00:11.732Z,99194.57
2017-10-06T10:02:39.192Z,99198.53
2017-10-06T10:05:06.677Z,99201.63
2017-10-06T10:07:34.171Z,99203.02
2017-10-06T10:10:01.633Z,99193.03
2017-10-06T10:12:29.121Z,99196.77
2017-10-06T10:14:56.605Z,99200.25
2017-10-06T10:17:24.103Z,99201.69
2017-10-06T10:19:51.558Z,99196.84
2017-10-06T10:22:19.022Z,99201.02
2017-10-06T10:24:46.512Z,99193.50
2017-10-06T10:27:13.999Z,99196.07
2017-10-06T10:29:41.493Z,99211.02
2017-10-06T10:32:09.045Z,99203.92
2017-10-06T10:34:36.525Z,99206.53
2017-10-06T10:39:30.840Z,99213.70
2017-10-06T10:41:58.395Z,99209.23
2017-10-06T10:44:25.865Z,99216.80
2017-10-06T10:46:53.552Z,99208.41
2017-10-06T10:49:21.013Z,99200.19
2017-10-06T10:51:48.476Z,99197.48
2017-10-06T10:54:16.215Z,99199.53
2017-10-06T10:56:43.692Z,99194.66
2017-10-06T10:59:11.177Z,99199.59
2017-10-06T11:01:38.660Z,99210.09
2017-10-06T11:04:06.139Z,99201.58
2017-10-06T11:06:33.626Z,99201.15
2017-10-06T11:09:01.088Z,99201.39
2017-10-06T11:11:28.578Z,99199.36
2017-10-06T11:13:56.087Z,99200.42
2017-10-06T11:16:23.587Z,99194.16
2017-10-06T11:18:51.059Z,99195.74
2017-10-06T11:21:18.596Z,99196.30
2017-10-06T11:23:46.082Z,99190.75
2017-10-06T11:26:13.551Z,99191.55
2017-10-06T11:28:41.092Z,99201.15
2017-10-06T11:31:08.656Z,99200.41
2017-10-06T11:33:36.142Z,99201.50
2017-10-06T11:36:03.638Z,99207.78
2017-10-06T11:38:31.138Z,99208.47
2017-10-06T11:40:58.631Z,99215.45
2017-10-06T11:43:26.096Z,99217.95
2017-10-06T11:45:53.600Z,99214.38
2017-10-06T11:48:21.079Z,99219.50
2017-10-06T11:50:48.611Z,99210.77
2017-10-06T11:53:16.093Z,99222.05
2017-10-06T11:55:43.563Z,99216.34
2017-10-06T11:58:11.044Z,99214.28
2017-10-06T12:00:38.539Z,99219.49
2017-10-06T12:03:06.034Z,99220.81
2017-10-06T12:05:33.545Z,99224.08
2017-10-06T12:08:01.032Z,99228.75
2017-10-06T12:10:28.594Z,99230.15
2017-10-06T12:12:56.065Z,99223.91
2017-10-06T12:15:23.582Z,99217.86
2017-10-06T12:17:51.101Z,99230.03
2017-10-06T12:20:18.575Z,99235.09
2017-10-06T12:22:46.087Z,99233.91
2017-10-06T12:25:13.556Z,99237.63
2017-10-06T12:27:41.019Z,99249.23
2017-10-06T12:30:08.505Z,99246.80
2017-10-06T12:32:35.993Z,99243.37
2017-10-06T12:35:03.483Z,99236.06
2017-10-06T12:37:30.938Z,99238.64
2017-10-06T12:39:58.568Z,99240.31
2017-10-06T12:42:26.048Z,99223.47
2017-10-06T12:44:53.575Z,99228.56
2017-10-06T12:47:21.358Z,99225.03
2017-10-06T12:49:48.862Z,99219.47
2017-10-06T12:52:16.337Z,99225.30
2017-10-06T12:54:43.799Z,99235.50
2017-10-06T12:57:11.257Z,99235.44
2017-10-06T12:59:39.092Z,99234.25
2017-10-06T13:02:06.583Z,99237.93
2017-10-06T13:04:34.074Z,99237.38
2017-10-06T13:07:01.549Z,99246.19
2017-10-06T13:09:29.017Z,99248.77
2017-10-06T13:11:56.558Z,99248.22
2017-10-06T13:14:24.038Z,99250.84
2017-10-06T13:16:51.542Z,99249.50
2017-10-06T13:19:19.050Z,99243.09
2017-10-06T13:21:46.514Z,99246.03
2017-10-06T13:24:13.993Z,99248.05
2017-10-06T13:26:41.503Z,99249.62
2017-10-06T13:29:09.074Z,99250.78
2017-10-06T13:31:36.626Z,99240.83
2017-10-06T13:34:04.141Z,99244.77
2017-10-06T13:36:31.624Z,99240.06
2017-10-06T13:38:59.070Z,99247.84
2017-10-06T13:41:26.557Z,99247.75
2017-10-06T13:43:54.027Z,99252.24
2017-10-06T13:46:21.536Z,99260.88
2017-10-06T13:48:49.000Z,99254.92
2017-10-06T13:51:16.577Z,99266.35
2017-10-06T13:53:44.060Z,99272.09
2017-10-06T13:56:11.533Z,99264.34
2017-10-06T13:58:39.036Z,99271.67
2017-10-06T14:01:06.535Z,99272.57
2017-10-06T14:03:34.068Z,99284.21
2017-10-06T14:06:01.541Z,99284.98
2017-10-06T14:08:29.028Z,99274.27
2017-10-06T14:10:56.577Z,99277.92
2017-10-06T14:13:24.083Z,99287.44
2017-10-06T14:15:51.623Z,99284.20
2017-10-06T14:18:19.092Z,99290.05
2017-10-06T14:20:46.843Z,99284.78
2017-10-06T14:23:14.381Z,99289.00
2017-10-06T14:25:41.894Z,99284.49
2017-10-06T14:28:21.081Z,99281.61
2017-10-06T14:30:49.245Z,99277.52
2017-10-06T14:33:16.743Z,99279.53
2017-10-06T14:35:44.211Z,99294.20
2017-10-06T14:38:11.788Z,99292.69
2017-10-06T14:40:39.311Z,99287.59
2017-10-06T14:43:07.420Z,99283.63
2017-10-06T14:45:34.901Z,99287.83
2017-10-06T14:48:02.356Z,99277.20
2017-10-06T14:50:29.876Z,99283.38
2017-10-06T14:52:57.355Z,99285.37
2017-10-06T14:55:24.925Z,99274.47
2017-10-06T14:57:52.414Z,99283.69
2017-10-06T15:00:19.875Z,99287.11
2017-10-06T15:02:47.426Z,99290.89
2017-10-06T15:05:14.956Z,99293.33
2017-10-06T15:07:42.424Z,99295.07
2017-10-06T15:10:10.030Z,99304.09
2017-10-06T15:12:37.517Z,99292.75
2017-10-06T15:15:06.015Z,99294.52
2017-10-06T15:17:33.510Z,99295.45
2017-10-06T15:20:01.044Z,99301.26
2017-10-06T15:22:34.615Z,99303.88
2017-10-06T15:25:03.637Z,99302.81
2017-10-06T15:27:31.115Z,99296.91
2017-10-06T15:29:58.597Z,99294.78
2017-10-06T15:32:26.069Z,99291.56
2017-10-06T15:34:53.645Z,99302.39
2017-10-06T15:37:21.133Z,99300.17
2017-10-06T15:39:48.610Z,99305.13
2017-10-06T15:42:16.104Z,99312.41
2017-10-06T15:44:43.631Z,99306.23
2017-10-06T15:47:11.104Z,99311.67
2017-10-06T15:49:38.568Z,99317.73
2017-10-06T15:52:06.028Z,99328.84
2017-10-06T15:54:33.521Z,99337.55
2017-10-06T15:57:00.986Z,99336.16
2017-10-06T15:59:28.502Z,99340.83
2017-10-06T16:01:56.043Z,99354.55
2017-10-06T16:04:23.593Z,99353.70
2017-10-06T16:06:51.107Z,99362.69
2017-10-06T16:09:18.578Z,99366.99
2017-10-06T16:11:46.032Z,99365.19
2017-10-06T16:14:13.540Z,99370.88
2017-10-06T16:16:41.025Z,99375.27
2017-10-06T16:19:08.566Z,99372.84
2017-10-06T16:21:36.146Z,99367.06
2017-10-06T16:24:03.628Z,99370.13
2017-10-06T16:26:31.182Z,99378.13
2017-10-06T16:28:58.681Z,99371.78
2017-10-06T16:31:26.182Z,99360.47
2017-10-06T16:33:57.743Z,99379.71
2017-10-06T16:36:25.274Z,99373.06
2017-10-06T16:38:52.751Z,99377.08
2017-10-06T16:41:20.318Z,99380.98
2017-10-06T16:43:47.872Z,99383.97
2017-10-06T16:46:15.338Z,99386.87
2017-10-06T16:48:42.826Z,99388.14
2017-10-06T16:51:10.302Z,99390.41
2017-10-06T16:53:37.776Z,99399.37
2017-10-06T16:56:05.290Z,99400.41
2017-10-06T16:58:32.770Z,99416.31
2017-10-06T17:01:00.239Z,99415.77
2017-10-06T17:03:27.750Z,99421.23
2017-10-06T17:05:55.251Z,99421.05
2017-10-06T17:08:22.776Z,99427.50
2017-10-06T17:10:50.246Z,99427.44
2017-10-06T17:13:17.726Z,99431.73
2017-10-06T17:15:45.182Z,99434.39
2017-10-06T17:18:12.649Z,99435.69
2017-10-06T17:20:40.167Z,99438.75
2017-10-06T17:23:07.640Z,99444.45
2017-10-06T17:25:35.118Z,99443.10
2017-10-06T17:28:02.579Z,99450.36
2017-10-06T17:30:30.061Z,99456.03
2017-10-06T17:32:57.626Z,99455.04
2017-10-06T17:35:25.123Z,99467.73
2017-10-06T17:37:52.631Z,99469.05
2017-10-06T17:40:20.252Z,99473.00
2017-10-06T17:42:47.774Z,99480.30
2017-10-06T17:45:15.263Z,99484.91
2017-10-06T17:47:42.763Z,99483.17
2017-10-06T17:50:10.236Z,99489.62
2017-10-06T17:52:37.720Z,99485.19
2017-10-06T17:55:05.298Z,99481.38
2017-10-06T17:57:32.776Z,99489.62
2017-10-06T18:00:00.243Z,99492.38
2017-10-06T18:02:27.713Z,99489.58
2017-10-06T18:04:55.182Z,99512.97
2017-10-06T18:07:22.749Z,99510.22
2017-10-06T18:09:50.228Z,99504.36
2017-10-06T18:12:17.721Z,99507.28
2017-10-06T18:14:45.240Z,99510.75
2017-10-06T18:17:12.716Z,99513.05
2017-10-06T18:19:40.203Z,99507.56
2017-10-06T18:22:08.642Z,99504.92
2017-10-06T18:24:36.113Z,99507.03
2017-10-06T18:27:03.623Z,99512.68
2017-10-06T18:29:31.191Z,99511.34
2017-10-06T18:31:58.700Z,99512.78
2017-10-06T18:34:26.283Z,99518.15
2017-10-06T18:36:53.860Z,99520.00
2017-10-06T18:39:21.643Z,99521.47
2017-10-06T18:41:49.218Z,99527.84
2017-10-06T18:44:16.754Z,99536.91
2017-10-06T18:46:44.260Z,99540.72
2017-10-06T18:49:11.740Z,99551.13
2017-10-06T18:51:39.252Z,99549.67
2017-10-06T18:54:06.710Z,99545.69
2017-10-06T18:56:34.310Z,99550.91
2017-10-06T18:59:01.828Z,99556.16
2017-10-06T19:01:29.314Z,99555.79
2017-10-06T19:03:56.853Z,99553.66
2017-10-06T19:06:24.324Z,99554.75
2017-10-06T19:08:51.874Z,99560.98
2017-10-06T19:11:19.387Z,99559.33
2017-10-06T19:13:46.851Z,99546.41
2017-10-06T19:16:14.408Z,99545.33
2017-10-06T19:18:41.927Z,99545.00
2017-10-06T19:21:09.432Z,99544.41
2017-10-06T19:23:37.025Z,99544.80
2017-10-06T19:26:04.511Z,99547.70
2017-10-06T19:28:31.997Z,99546.73
2017-10-06T19:30:59.574Z,99554.27
2017-10-06T19:33:27.130Z,99554.06
2017-10-06T19:35:54.598Z,99559.56
2017-10-06T19:38:22.176Z,99561.80
2017-10-06T19:40:49.721Z,99564.18
2017-10-06T19:43:17.206Z,99560.28
2017-10-06T19:45:44.682Z,99559.72
2017-10-06T19:48:12.144Z,99570.17
2017-10-06T19:50:39.624Z,99566.77
2017-10-06T19:53:07.100Z,99564.56
2017-10-06T19:55:34.696Z,99560.62
2017-10-06T20:05:41.428Z,99581.25
2017-10-06T20:08:08.972Z,99578.83
2017-10-06T20:10:36.458Z,99577.09
2017-10-06T20:25:50.238Z,99601.48
2017-10-06T20:33:24.047Z,99615.55
2017-10-06T20:35:51.503Z,99612.39
2017-10-06T20:38:18.995Z,99617.05
2017-10-06T20:56:03.525Z,99612.45
2017-10-06T21:01:04.036Z,99605.61
2017-10-06T21:06:04.515Z,99615.50
2017-10-06T21:13:37.995Z,99617.47
2017-10-06T21:16:07.257Z,99622.02
2017-10-06T21:21:07.899Z,99627.78
2017-10-06T21:26:09.642Z,99637.72
2017-10-06T21:33:42.913Z,99651.66
2017-10-06T21:38:43.315Z,99648.38
2017-10-06T21:41:10.806Z,99653.56
2017-10-06T21:43:38.279Z,99651.18
2017-10-06T21:46:05.852Z,99656.98
2017-10-06T21:53:38.939Z,99652.24
2017-10-06T21:56:06.420Z,99663.91
2017-10-06T21:58:33.958Z,99669.27
2017-10-06T22:01:01.461Z,99667.08
2017-10-06T22:06:01.833Z,99683.27
2017-10-06T22:08:29.611Z,99668.38
2017-10-06T22:33:56.406Z,99658.89
2017-10-06T22:38:57.159Z,99676.56
2017-10-06T22:54:10.381Z,99684.93
2017-10-06T22:56:37.849Z,99686.44
2017-10-06T23:01:38.038Z,99689.14
2017-10-06T23:04:05.498Z,99684.20
2017-10-06T23:06:33.097Z,99693.84
2017-10-06T23:11:33.422Z,99700.55
2017-10-06T23:14:00.928Z,99712.98
2017-10-06T23:21:34.214Z,99715.20
2017-10-06T23:34:15.750Z,99710.30
2017-10-06T23:36:43.240Z,99699.98
2017-10-06T23:39:10.756Z,99703.56
2017-10-06T23:49:16.594Z,99713.23
2017-10-06T23:51:44.467Z,99715.47
